Archival Weather

Bridgeport/Sikorsky

Bridgeport, Connecticut (KBDR)

Report from: Friday, February 23, 2024 1:18 AM EST
Current time: Wednesday, May 29, 2024 8:04 PM EDT

Current weather – Weather history – Daily summaries
Weather forecast

Present weatherLight rain
Temperature3.9°C (39.0°F)
Wind chill1.5°C (34.8°F)
Dew point2.8°C (37.0°F)
Winds 5 kts (2.6 m/s, 5.8 mph) East (100°)
Visibility10 mi. (16.1 km)
Clouds Few clouds 1,500 ft. (457 m)
Scattered clouds 2,300 ft. (701 m)
Ceiling: Overcast 3,600 ft. (1,097 m)
Altimeter29.68 in.Hg (1005 mB)
Precipitiation0.02 in. (1 mm)
Relative humidity93 %
Density altitude-955 ft. (-291 m)
Remarks Fully automated report
Special weather observation
Automated weather observing station with precipitation discriminator
Flight conditions Visual Meteorological Conditions
Raw dataSPUS80 KWBC 230628 SPECI KBDR 230618Z AUTO 10005KT 10SM -RA FEW015 SCT023 OVC036 04/03 A2968 RMK AO2 P0002 T00390028
An error has occurred. This application may no longer respond until reloaded. Reload 🗙